sensor_id;sensor_type;location;lat;lon;timestamp;pressure;altitude;pressure_sealevel;temperature;humidity
36254;BME280;22291;52.250;21.228;2023-03-15T00:00:12;98496.16;;;8.50;85.09
36254;BME280;22291;52.250;21.228;2023-03-15T00:02:41;98501.41;;;8.46;85.42
36254;BME280;22291;52.250;21.228;2023-03-15T00:05:11;98503.90;;;8.45;85.12
36254;BME280;22291;52.250;21.228;2023-03-15T00:07:40;98513.09;;;8.44;85.85
36254;BME280;22291;52.250;21.228;2023-03-15T00:10:12;98506.16;;;8.43;85.96
36254;BME280;22291;52.250;21.228;2023-03-15T00:12:41;98508.34;;;8.41;85.89
36254;BME280;22291;52.250;21.228;2023-03-15T00:15:13;98507.23;;;8.42;85.63
36254;BME280;22291;52.250;21.228;2023-03-15T00:17:43;98514.30;;;8.40;86.28
36254;BME280;22291;52.250;21.228;2023-03-15T00:20:13;98518.58;;;8.41;86.39
36254;BME280;22291;52.250;21.228;2023-03-15T00:22:46;98517.47;;;8.43;86.45
36254;BME280;22291;52.250;21.228;2023-03-15T00:25:13;98522.86;;;8.43;86.50
36254;BME280;22291;52.250;21.228;2023-03-15T00:27:42;98520.97;;;8.43;86.62
36254;BME280;22291;52.250;21.228;2023-03-15T00:30:13;98525.66;;;8.46;86.31
36254;BME280;22291;52.250;21.228;2023-03-15T00:32:40;98525.33;;;8.48;86.49
36254;BME280;22291;52.250;21.228;2023-03-15T00:35:12;98529.60;;;8.49;86.79
36254;BME280;22291;52.250;21.228;2023-03-15T00:37:45;98531.05;;;8.52;86.27
36254;BME280;22291;52.250;21.228;2023-03-15T00:40:19;98536.89;;;8.54;86.19
36254;BME280;22291;52.250;21.228;2023-03-15T00:42:50;98541.40;;;8.56;86.68
36254;BME280;22291;52.250;21.228;2023-03-15T00:45:21;98545.31;;;8.59;86.38
36254;BME280;22291;52.250;21.228;2023-03-15T00:47:54;98541.72;;;8.61;86.18
36254;BME280;22291;52.250;21.228;2023-03-15T00:50:23;98550.03;;;8.62;86.04
36254;BME280;22291;52.250;21.228;2023-03-15T00:52:54;98560.14;;;8.65;86.19
36254;BME280;22291;52.250;21.228;2023-03-15T00:55:21;98562.50;;;8.67;86.65
36254;BME280;22291;52.250;21.228;2023-03-15T00:57:48;98557.56;;;8.69;86.20
36254;BME280;22291;52.250;21.228;2023-03-15T01:00:19;98568.00;;;8.70;85.96
36254;BME280;22291;52.250;21.228;2023-03-15T01:02:53;98581.92;;;8.72;86.19
36254;BME280;22291;52.250;21.228;2023-03-15T01:05:21;98613.70;;;8.73;85.20
36254;BME280;22291;52.250;21.228;2023-03-15T01:07:49;98636.96;;;8.65;83.69
36254;BME280;22291;52.250;21.228;2023-03-15T01:10:20;98659.73;;;8.43;81.54
36254;BME280;22291;52.250;21.228;2023-03-15T01:12:49;98675.66;;;8.15;79.59
36254;BME280;22291;52.250;21.228;2023-03-15T01:15:16;98678.33;;;7.81;78.64
36254;BME280;22291;52.250;21.228;2023-03-15T01:17:43;98693.16;;;7.45;78.32
36254;BME280;22291;52.250;21.228;2023-03-15T01:20:16;98716.23;;;7.10;78.19
36254;BME280;22291;52.250;21.228;2023-03-15T01:22:43;98732.81;;;6.83;78.58
36254;BME280;22291;52.250;21.228;2023-03-15T01:25:10;98723.39;;;6.59;79.03
36254;BME280;22291;52.250;21.228;2023-03-15T01:27:40;98729.45;;;6.39;79.24
36254;BME280;22291;52.250;21.228;2023-03-15T01:30:17;98751.09;;;6.16;79.04
36254;BME280;22291;52.250;21.228;2023-03-15T01:32:47;98759.84;;;5.93;78.93
36254;BME280;22291;52.250;21.228;2023-03-15T01:35:17;98776.30;;;5.71;78.94
36254;BME280;22291;52.250;21.228;2023-03-15T01:37:44;98788.72;;;5.50;78.83
36254;BME280;22291;52.250;21.228;2023-03-15T01:40:18;98807.66;;;5.24;78.87
36254;BME280;22291;52.250;21.228;2023-03-15T01:48:41;98837.34;;;4.74;79.59
36254;BME280;22291;52.250;21.228;2023-03-15T01:51:20;98851.77;;;4.53;80.09
36254;BME280;22291;52.250;21.228;2023-03-15T01:54:01;98867.94;;;4.37;80.40
36254;BME280;22291;52.250;21.228;2023-03-15T01:56:27;98867.91;;;4.25;80.90
36254;BME280;22291;52.250;21.228;2023-03-15T01:59:02;98888.76;;;4.15;81.36
36254;BME280;22291;52.250;21.228;2023-03-15T02:01:35;98891.94;;;4.03;81.56
36254;BME280;22291;52.250;21.228;2023-03-15T02:04:09;98888.99;;;3.90;81.29
36254;BME280;22291;52.250;21.228;2023-03-15T02:06:42;98896.11;;;3.81;81.43
36254;BME280;22291;52.250;21.228;2023-03-15T02:09:15;98927.59;;;3.73;81.43
36254;BME280;22291;52.250;21.228;2023-03-15T02:11:45;98938.67;;;3.66;81.54
36254;BME280;22291;52.250;21.228;2023-03-15T02:14:16;98956.18;;;3.59;80.90
36254;BME280;22291;52.250;21.228;2023-03-15T02:16:45;98975.55;;;3.53;80.90
36254;BME280;22291;52.250;21.228;2023-03-15T02:19:20;98992.52;;;3.46;80.91
36254;BME280;22291;52.250;21.228;2023-03-15T02:22:00;98998.67;;;3.44;80.94
36254;BME280;22291;52.250;21.228;2023-03-15T02:27:12;99023.45;;;3.33;80.82
36254;BME280;22291;52.250;21.228;2023-03-15T02:29:43;99030.70;;;3.30;80.66
36254;BME280;22291;52.250;21.228;2023-03-15T02:32:12;99029.71;;;3.26;80.56
36254;BME280;22291;52.250;21.228;2023-03-15T02:34:39;99034.32;;;3.20;80.50
36254;BME280;22291;52.250;21.228;2023-03-15T02:37:06;99047.47;;;3.16;80.61
36254;BME280;22291;52.250;21.228;2023-03-15T02:39:33;99070.23;;;3.14;80.88
36254;BME280;22291;52.250;21.228;2023-03-15T02:42:02;99083.62;;;3.11;80.98
36254;BME280;22291;52.250;21.228;2023-03-15T02:44:36;99088.67;;;3.13;81.18
36254;BME280;22291;52.250;21.228;2023-03-15T02:47:15;99107.66;;;3.11;81.22
36254;BME280;22291;52.250;21.228;2023-03-15T02:49:49;99121.58;;;3.11;81.07
36254;BME280;22291;52.250;21.228;2023-03-15T02:52:21;99126.66;;;3.10;80.93
36254;BME280;22291;52.250;21.228;2023-03-15T02:54:52;99132.55;;;3.09;81.06
36254;BME280;22291;52.250;21.228;2023-03-15T02:57:21;99133.59;;;3.11;80.95
36254;BME280;22291;52.250;21.228;2023-03-15T02:59:48;99152.56;;;3.12;81.01
36254;BME280;22291;52.250;21.228;2023-03-15T03:02:22;99152.56;;;3.12;81.01
36254;BME280;22291;52.250;21.228;2023-03-15T03:04:49;99152.80;;;3.13;81.08
36254;BME280;22291;52.250;21.228;2023-03-15T03:07:19;99155.24;;;3.12;80.99
36254;BME280;22291;52.250;21.228;2023-03-15T03:09:46;99153.36;;;3.12;80.92
36254;BME280;22291;52.250;21.228;2023-03-15T03:12:13;99153.36;;;3.12;80.87
36254;BME280;22291;52.250;21.228;2023-03-15T03:14:43;99156.81;;;3.13;80.86
36254;BME280;22291;52.250;21.228;2023-03-15T03:17:12;99160.82;;;3.13;80.71
36254;BME280;22291;52.250;21.228;2023-03-15T03:19:44;99162.20;;;3.10;80.46
36254;BME280;22291;52.250;21.228;2023-03-15T03:22:14;99166.73;;;3.10;80.36
36254;BME280;22291;52.250;21.228;2023-03-15T03:24:42;99174.75;;;3.10;80.44
36254;BME280;22291;52.250;21.228;2023-03-15T03:27:13;99192.11;;;3.10;80.46
36254;BME280;22291;52.250;21.228;2023-03-15T03:29:43;99196.94;;;3.10;80.47
36254;BME280;22291;52.250;21.228;2023-03-15T03:32:17;99212.69;;;3.12;80.62
36254;BME280;22291;52.250;21.228;2023-03-15T03:34:44;99216.70;;;3.12;80.57
36254;BME280;22291;52.250;21.228;2023-03-15T03:37:19;99214.02;;;3.12;80.50
36254;BME280;22291;52.250;21.228;2023-03-15T03:39:50;99211.09;;;3.11;80.51
36254;BME280;22291;52.250;21.228;2023-03-15T03:42:20;99235.41;;;3.12;80.57
36254;BME280;22291;52.250;21.228;2023-03-15T03:44:53;99250.62;;;3.11;80.39
36254;BME280;22291;52.250;21.228;2023-03-15T03:47:20;99249.05;;;3.10;80.54
36254;BME280;22291;52.250;21.228;2023-03-15T03:49:50;99258.11;;;3.12;80.50
36254;BME280;22291;52.250;21.228;2023-03-15T03:52:26;99261.30;;;3.11;80.50
36254;BME280;22291;52.250;21.228;2023-03-15T03:54:55;99265.58;;;3.12;80.63
36254;BME280;22291;52.250;21.228;2023-03-15T03:57:22;99273.59;;;3.12;80.59
36254;BME280;22291;52.250;21.228;2023-03-15T03:59:49;99281.33;;;3.14;80.54
36254;BME280;22291;52.250;21.228;2023-03-15T04:02:19;99297.88;;;3.16;80.80
36254;BME280;22291;52.250;21.228;2023-03-15T04:04:48;99306.16;;;3.17;80.85
36254;BME280;22291;52.250;21.228;2023-03-15T04:07:17;99309.05;;;3.21;80.76
36254;BME280;22291;52.250;21.228;2023-03-15T04:09:45;99301.83;;;3.21;80.75
36254;BME280;22291;52.250;21.228;2023-03-15T04:12:17;99285.51;;;3.23;80.84
36254;BME280;22291;52.250;21.228;2023-03-15T04:14:46;99298.31;;;3.26;80.91
36254;BME280;22291;52.250;21.228;2023-03-15T04:17:13;99301.22;;;3.27;80.91
36254;BME280;22291;52.250;21.228;2023-03-15T04:19:40;99303.61;;;3.28;80.89
36254;BME280;22291;52.250;21.228;2023-03-15T04:22:07;99314.57;;;3.29;81.03
36254;BME280;22291;52.250;21.228;2023-03-15T04:24:41;99314.57;;;3.29;80.81
36254;BME280;22291;52.250;21.228;2023-03-15T04:27:12;99318.86;;;3.28;80.66
36254;BME280;22291;52.250;21.228;2023-03-15T04:29:41;99310.30;;;3.28;80.66
36254;BME280;22291;52.250;21.228;2023-03-15T04:32:13;99309.22;;;3.29;80.81
36254;BME280;22291;52.250;21.228;2023-03-15T04:34:42;99307.10;;;3.29;80.70
36254;BME280;22291;52.250;21.228;2023-03-15T04:37:12;99313.78;;;3.29;80.58
36254;BME280;22291;52.250;21.228;2023-03-15T04:39:39;99319.65;;;3.28;80.62
36254;BME280;22291;52.250;21.228;2023-03-15T04:42:11;99322.36;;;3.26;80.45
36254;BME280;22291;52.250;21.228;2023-03-15T04:44:39;99327.98;;;3.24;80.53
36254;BME280;22291;52.250;21.228;2023-03-15T04:47:08;99326.10;;;3.25;80.49
36254;BME280;22291;52.250;21.228;2023-03-15T04:49:37;99324.81;;;3.22;80.38
36254;BME280;22291;52.250;21.228;2023-03-15T04:52:09;99340.86;;;3.20;80.22
36254;BME280;22291;52.250;21.228;2023-03-15T04:54:36;99342.75;;;3.16;80.09
36254;BME280;22291;52.250;21.228;2023-03-15T04:57:08;99347.31;;;3.16;79.70
36254;BME280;22291;52.250;21.228;2023-03-15T04:59:38;99352.39;;;3.15;79.62
36254;BME280;22291;52.250;21.228;2023-03-15T05:02:08;99351.64;;;3.12;79.30
36254;BME280;22291;52.250;21.228;2023-03-15T05:04:35;99362.33;;;3.12;79.36
36254;BME280;22291;52.250;21.228;2023-03-15T05:07:03;99342.52;;;3.13;79.53
36254;BME280;22291;52.250;21.228;2023-03-15T05:09:30;99357.22;;;3.13;79.48
36254;BME280;22291;52.250;21.228;2023-03-15T05:11:59;99357.48;;;3.14;79.46
36254;BME280;22291;52.250;21.228;2023-03-15T05:14:26;99367.63;;;3.14;79.40
36254;BME280;22291;52.250;21.228;2023-03-15T05:16:54;99370.84;;;3.14;79.38
36254;BME280;22291;52.250;21.228;2023-03-15T05:19:23;99380.20;;;3.14;79.20
36254;BME280;22291;52.250;21.228;2023-03-15T05:21:52;99378.32;;;3.14;79.32
36254;BME280;22291;52.250;21.228;2023-03-15T05:24:21;99391.41;;;3.16;79.17
36254;BME280;22291;52.250;21.228;2023-03-15T05:26:50;99404.75;;;3.18;79.37
36254;BME280;22291;52.250;21.228;2023-03-15T05:29:22;99406.84;;;3.22;79.42
36254;BME280;22291;52.250;21.228;2023-03-15T05:31:51;99412.17;;;3.24;79.32
36254;BME280;22291;52.250;21.228;2023-03-15T05:34:20;99411.11;;;3.25;79.27
36254;BME280;22291;52.250;21.228;2023-03-15T05:36:51;99419.88;;;3.28;79.16
36254;BME280;22291;52.250;21.228;2023-03-15T05:39:25;99418.81;;;3.29;78.88
36254;BME280;22291;52.250;21.228;2023-03-15T05:41:54;99412.92;;;3.30;78.62
36254;BME280;22291;52.250;21.228;2023-03-15T05:44:26;99418.53;;;3.31;78.74
36254;BME280;22291;52.250;21.228;2023-03-15T05:46:53;99431.08;;;3.33;78.66
36254;BME280;22291;52.250;21.228;2023-03-15T05:49:20;99427.84;;;3.36;78.51
36254;BME280;22291;52.250;21.228;2023-03-15T05:51:47;99431.02;;;3.38;78.34
36254;BME280;22291;52.250;21.228;2023-03-15T05:54:14;99444.11;;;3.40;78.15
36254;BME280;22291;52.250;21.228;2023-03-15T05:56:41;99442.78;;;3.40;77.73
36254;BME280;22291;52.250;21.228;2023-03-15T05:59:09;99458.55;;;3.39;77.11
36254;BME280;22291;52.250;21.228;2023-03-15T06:01:38;99474.59;;;3.39;77.05
36254;BME280;22291;52.250;21.228;2023-03-15T06:04:05;99473.80;;;3.38;76.88
36254;BME280;22291;52.250;21.228;2023-03-15T06:06:32;99475.69;;;3.38;76.93
36254;BME280;22291;52.250;21.228;2023-03-15T06:08:59;99486.09;;;3.39;77.02
36254;BME280;22291;52.250;21.228;2023-03-15T06:11:27;99489.52;;;3.42;77.06
36254;BME280;22291;52.250;21.228;2023-03-15T06:13:54;99502.61;;;3.44;76.83
36254;BME280;22291;52.250;21.228;2023-03-15T06:16:21;99503.67;;;3.45;76.64
36254;BME280;22291;52.250;21.228;2023-03-15T06:18:48;99506.11;;;3.44;76.29
36254;BME280;22291;52.250;21.228;2023-03-15T06:21:17;99516.26;;;3.42;75.87
36254;BME280;22291;52.250;21.228;2023-03-15T06:23:44;99529.39;;;3.41;75.95
36254;BME280;22291;52.250;21.228;2023-03-15T06:26:12;99529.66;;;3.40;75.84
36254;BME280;22291;52.250;21.228;2023-03-15T06:28:41;99525.92;;;3.41;75.86
36254;BME280;22291;52.250;21.228;2023-03-15T06:31:13;99526.16;;;3.42;75.94
36254;BME280;22291;52.250;21.228;2023-03-15T06:33:42;99536.03;;;3.46;76.05
36254;BME280;22291;52.250;21.228;2023-03-15T06:36:12;99534.38;;;3.50;75.96
36254;BME280;22291;52.250;21.228;2023-03-15T06:38:43;99539.96;;;3.54;75.67
36254;BME280;22291;52.250;21.228;2023-03-15T06:41:10;99545.30;;;3.57;75.30
36254;BME280;22291;52.250;21.228;2023-03-15T06:43:42;99549.83;;;3.59;75.16
36254;BME280;22291;52.250;21.228;2023-03-15T06:46:11;99557.84;;;3.61;74.52
36254;BME280;22291;52.250;21.228;2023-03-15T06:48:42;99560.76;;;3.62;75.00
36254;BME280;22291;52.250;21.228;2023-03-15T06:51:10;99565.27;;;3.67;74.80
36254;BME280;22291;52.250;21.228;2023-03-15T06:53:37;99565.00;;;3.68;74.47
36254;BME280;22291;52.250;21.228;2023-03-15T06:56:07;99576.48;;;3.69;74.05
36254;BME280;22291;52.250;21.228;2023-03-15T06:58:36;99579.43;;;3.70;74.33
36254;BME280;22291;52.250;21.228;2023-03-15T07:01:04;99594.89;;;3.76;74.50
36254;BME280;22291;52.250;21.228;2023-03-15T07:03:31;99598.58;;;3.82;74.20
36254;BME280;22291;52.250;21.228;2023-03-15T07:05:59;99597.20;;;3.87;73.80
36254;BME280;22291;52.250;21.228;2023-03-15T07:08:26;99605.18;;;3.92;73.74
36254;BME280;22291;52.250;21.228;2023-03-15T07:10:55;99609.42;;;3.99;73.64
36254;BME280;22291;52.250;21.228;2023-03-15T07:13:27;99604.02;;;4.04;73.26
36254;BME280;22291;52.250;21.228;2023-03-15T07:15:56;99605.59;;;4.05;72.93
36254;BME280;22291;52.250;21.228;2023-03-15T07:18:24;99604.53;;;4.06;72.93
36254;BME280;22291;52.250;21.228;2023-03-15T07:20:56;99610.66;;;4.09;72.79
36254;BME280;22291;52.250;21.228;2023-03-15T07:23:29;99612.00;;;4.09;72.57
36254;BME280;22291;52.250;21.228;2023-03-15T07:26:00;99609.00;;;4.13;72.75
36254;BME280;22291;52.250;21.228;2023-03-15T07:28:29;99609.52;;;4.15;71.92
36254;BME280;22291;52.250;21.228;2023-03-15T07:31:02;99610.85;;;4.15;72.16
36254;BME280;22291;52.250;21.228;2023-03-15T07:33:35;99605.73;;;4.19;72.07
36254;BME280;22291;52.250;21.228;2023-03-15T07:36:08;99619.94;;;4.19;71.65
36254;BME280;22291;52.250;21.228;2023-03-15T07:38:38;99629.54;;;4.20;71.61
36254;BME280;22291;52.250;21.228;2023-03-15T07:41:07;99619.60;;;4.26;71.58
36254;BME280;22291;52.250;21.228;2023-03-15T07:43:34;99619.28;;;4.30;71.18
36254;BME280;22291;52.250;21.228;2023-03-15T07:46:05;99623.52;;;4.34;71.05
36254;BME280;22291;52.250;21.228;2023-03-15T07:48:34;99632.23;;;4.47;70.74
36254;BME280;22291;52.250;21.228;2023-03-15T07:51:01;99633.17;;;4.59;70.63
36254;BME280;22291;52.250;21.228;2023-03-15T07:53:30;99638.86;;;4.76;70.51
36254;BME280;22291;52.250;21.228;2023-03-15T07:56:00;99637.81;;;4.99;70.63
36254;BME280;22291;52.250;21.228;2023-03-15T07:58:27;99647.45;;;5.38;71.39
36254;BME280;22291;52.250;21.228;2023-03-15T08:00:56;99648.84;;;5.90;70.25
36254;BME280;22291;52.250;21.228;2023-03-15T08:03:25;99650.14;;;6.11;68.40
36254;BME280;22291;52.250;21.228;2023-03-15T08:05:54;99656.77;;;6.16;67.54
36254;BME280;22291;52.250;21.228;2023-03-15T08:08:21;99670.42;;;6.17;67.35
36254;BME280;22291;52.250;21.228;2023-03-15T08:10:53;99677.78;;;6.12;66.18
36254;BME280;22291;52.250;21.228;2023-03-15T08:13:22;99677.38;;;6.05;66.40
36254;BME280;22291;52.250;21.228;2023-03-15T08:15:51;99679.08;;;5.98;65.76
36254;BME280;22291;52.250;21.228;2023-03-15T08:18:18;99683.41;;;5.96;66.06
36254;BME280;22291;52.250;21.228;2023-03-15T08:20:46;99692.80;;;5.96;66.59
36254;BME280;22291;52.250;21.228;2023-03-15T08:23:15;99703.40;;;6.04;66.29
36254;BME280;22291;52.250;21.228;2023-03-15T08:25:44;99701.00;;;6.03;65.81
36254;BME280;22291;52.250;21.228;2023-03-15T08:28:11;99704.30;;;6.00;66.20
36254;BME280;22291;52.250;21.228;2023-03-15T08:30:40;99717.72;;;6.16;66.67
36254;BME280;22291;52.250;21.228;2023-03-15T08:33:09;99720.41;;;6.32;66.07
36254;BME280;22291;52.250;21.228;2023-03-15T08:35:39;99723.51;;;6.40;65.73
36254;BME280;22291;52.250;21.228;2023-03-15T08:38:09;99726.29;;;6.81;65.77
36254;BME280;22291;52.250;21.228;2023-03-15T08:40:36;99732.85;;;7.03;65.38
36254;BME280;22291;52.250;21.228;2023-03-15T08:43:05;99732.52;;;7.07;64.52
36254;BME280;22291;52.250;21.228;2023-03-15T08:45:32;99744.06;;;7.07;63.95
36254;BME280;22291;52.250;21.228;2023-03-15T08:48:00;99756.66;;;7.09;62.74
36254;BME280;22291;52.250;21.228;2023-03-15T08:50:29;99757.45;;;6.96;62.50
36254;BME280;22291;52.250;21.228;2023-03-15T08:52:58;99762.19;;;6.88;62.69
36254;BME280;22291;52.250;21.228;2023-03-15T08:55:27;99753.79;;;6.76;61.70
36254;BME280;22291;52.250;21.228;2023-03-15T08:57:54;99771.03;;;6.58;62.32
36254;BME280;22291;52.250;21.228;2023-03-15T09:00:26;99770.85;;;6.68;63.46
36254;BME280;22291;52.250;21.228;2023-03-15T09:02:57;99784.39;;;6.94;64.16
36254;BME280;22291;52.250;21.228;2023-03-15T09:05:26;99793.89;;;7.33;64.34
36254;BME280;22291;52.250;21.228;2023-03-15T09:07:55;99786.88;;;7.59;63.80
36254;BME280;22291;52.250;21.228;2023-03-15T09:10:22;99783.44;;;7.95;62.22
36254;BME280;22291;52.250;21.228;2023-03-15T11:13:58;99797.62;;;15.45;40.88
36254;BME280;22291;52.250;21.228;2023-03-15T11:16:32;99808.05;;;15.49;40.92
36254;BME280;22291;52.250;21.228;2023-03-15T11:19:02;99805.48;;;15.41;39.54
36254;BME280;22291;52.250;21.228;2023-03-15T11:21:33;99812.09;;;15.40;41.25
36254;BME280;22291;52.250;21.228;2023-03-15T11:24:05;99809.38;;;15.65;40.28
36254;BME280;22291;52.250;21.228;2023-03-15T11:26:38;99806.77;;;15.53;39.42
36254;BME280;22291;52.250;21.228;2023-03-15T11:29:16;99802.95;;;15.48;38.61
36254;BME280;22291;52.250;21.228;2023-03-15T11:32:06;99810.42;;;15.51;39.63
36254;BME280;22291;52.250;21.228;2023-03-15T11:34:52;99810.11;;;15.30;39.35
36254;BME280;22291;52.250;21.228;2023-03-15T11:37:26;99815.13;;;15.12;39.03
36254;BME280;22291;52.250;21.228;2023-03-15T11:40:22;99806.52;;;14.72;39.51
36254;BME280;22291;52.250;21.228;2023-03-15T11:48:47;99804.64;;;14.61;40.15
36254;BME280;22291;52.250;21.228;2023-03-15T11:51:17;99807.81;;;14.28;38.77
36254;BME280;22291;52.250;21.228;2023-03-15T11:54:01;99815.20;;;13.81;39.20
36254;BME280;22291;52.250;21.228;2023-03-15T11:56:55;99827.55;;;13.48;39.76
36254;BME280;22291;52.250;21.228;2023-03-15T11:59:32;99823.90;;;13.25;40.38
36254;BME280;22291;52.250;21.228;2023-03-15T12:04:50;99836.36;;;12.53;40.28
36254;BME280;22291;52.250;21.228;2023-03-15T12:09:55;99845.52;;;12.55;41.79
36254;BME280;22291;52.250;21.228;2023-03-15T12:17:43;99855.22;;;13.22;40.97
36254;BME280;22291;52.250;21.228;2023-03-15T12:20:19;99844.45;;;13.01;40.40
36254;BME280;22291;52.250;21.228;2023-03-15T12:28:49;99849.42;;;12.99;41.64
36254;BME280;22291;52.250;21.228;2023-03-15T12:31:19;99853.83;;;13.43;41.48
36254;BME280;22291;52.250;21.228;2023-03-15T12:33:53;99849.62;;;13.58;40.21
36254;BME280;22291;52.250;21.228;2023-03-15T12:36:37;99850.20;;;13.33;39.35
36254;BME280;22291;52.250;21.228;2023-03-15T12:41:48;99865.03;;;12.42;39.23
36254;BME280;22291;52.250;21.228;2023-03-15T12:47:02;99874.22;;;11.54;40.52
36254;BME280;22291;52.250;21.228;2023-03-15T12:49:36;99871.97;;;11.17;40.60
36254;BME280;22291;52.250;21.228;2023-03-15T13:54:30;99934.43;;;9.00;43.98
36254;BME280;22291;52.250;21.228;2023-03-15T13:57:20;99940.73;;;8.95;43.86
36254;BME280;22291;52.250;21.228;2023-03-15T13:59:55;99936.33;;;8.88;43.87
36254;BME280;22291;52.250;21.228;2023-03-15T14:02:37;99945.52;;;8.75;44.29
36254;BME280;22291;52.250;21.228;2023-03-15T14:05:17;99942.23;;;8.65;44.35
36254;BME280;22291;52.250;21.228;2023-03-15T14:07:48;99951.94;;;8.66;44.61
36254;BME280;22291;52.250;21.228;2023-03-15T14:12:48;99953.63;;;8.36;44.80
36254;BME280;22291;52.250;21.228;2023-03-15T14:15:18;99953.09;;;8.23;45.26
36254;BME280;22291;52.250;21.228;2023-03-15T19:21:10;100218.78;;;0.90;64.24
36254;BME280;22291;52.250;21.228;2023-03-15T19:23:37;100218.89;;;0.79;64.53
36254;BME280;22291;52.250;21.228;2023-03-15T19:26:04;100228.64;;;0.73;64.96
36254;BME280;22291;52.250;21.228;2023-03-15T19:28:31;100234.14;;;0.66;65.10
36254;BME280;22291;52.250;21.228;2023-03-15T19:30:58;100230.34;;;0.60;65.50
36254;BME280;22291;52.250;21.228;2023-03-15T19:33:24;100231.02;;;0.52;65.57
36254;BME280;22291;52.250;21.228;2023-03-15T19:35:51;100235.70;;;0.45;65.69
36254;BME280;22291;52.250;21.228;2023-03-15T19:38:18;100233.73;;;0.38;65.82
36254;BME280;22291;52.250;21.228;2023-03-15T19:40:45;100243.77;;;0.33;66.01
36254;BME280;22291;52.250;21.228;2023-03-15T19:43:12;100241.48;;;0.23;66.09
36254;BME280;22291;52.250;21.228;2023-03-15T19:45:40;100247.75;;;0.16;65.97
36254;BME280;22291;52.250;21.228;2023-03-15T19:48:07;100247.66;;;0.11;66.08
36254;BME280;22291;52.250;21.228;2023-03-15T19:50:34;100241.94;;;0.03;66.48
36254;BME280;22291;52.250;21.228;2023-03-15T19:53:01;100246.61;;;-0.05;66.86
36254;BME280;22291;52.250;21.228;2023-03-15T19:55:29;100246.46;;;-0.12;67.18
36254;BME280;22291;52.250;21.228;2023-03-15T19:57:58;100245.87;;;-0.17;67.44
36254;BME280;22291;52.250;21.228;2023-03-15T20:02:46;100255.67;;;-0.17;67.66
36254;BME280;22291;52.250;21.228;2023-03-15T20:05:16;100251.73;;;-0.29;68.01
36254;BME280;22291;52.250;21.228;2023-03-15T20:07:45;100252.47;;;-0.34;68.16
36254;BME280;22291;52.250;21.228;2023-03-15T20:10:14;100251.61;;;-0.37;68.42
36254;BME280;22291;52.250;21.228;2023-03-15T20:12:44;100253.41;;;-0.40;68.84
36254;BME280;22291;52.250;21.228;2023-03-15T20:15:15;100257.16;;;-0.39;69.00
36254;BME280;22291;52.250;21.228;2023-03-15T20:17:44;100252.31;;;-0.42;69.37
36254;BME280;22291;52.250;21.228;2023-03-15T20:20:11;100256.36;;;-0.39;69.46
36254;BME280;22291;52.250;21.228;2023-03-15T20:22:41;100254.73;;;-0.40;69.25
36254;BME280;22291;52.250;21.228;2023-03-15T20:25:14;100253.94;;;-0.41;69.43
36254;BME280;22291;52.250;21.228;2023-03-15T20:27:39;100256.59;;;-0.41;69.52
36254;BME280;22291;52.250;21.228;2023-03-15T20:30:09;100263.50;;;-0.40;69.36
36254;BME280;22291;52.250;21.228;2023-03-15T20:32:37;100261.08;;;-0.41;69.73
36254;BME280;22291;52.250;21.228;2023-03-15T20:35:05;100268.02;;;-0.40;69.70
36254;BME280;22291;52.250;21.228;2023-03-15T20:37:36;100263.17;;;-0.43;69.87
36254;BME280;22291;52.250;21.228;2023-03-15T20:40:12;100266.89;;;-0.44;69.86
36254;BME280;22291;52.250;21.228;2023-03-15T20:42:38;100272.21;;;-0.44;70.07
36254;BME280;22291;52.250;21.228;2023-03-15T20:45:08;100275.60;;;-0.46;70.13
36254;BME280;22291;52.250;21.228;2023-03-15T20:47:37;100277.16;;;-0.48;70.00
36254;BME280;22291;52.250;21.228;2023-03-15T20:50:07;100276.83;;;-0.51;70.00
36254;BME280;22291;52.250;21.228;2023-03-15T20:52:34;100277.36;;;-0.52;70.13
36254;BME280;22291;52.250;21.228;2023-03-15T20:55:01;100279.16;;;-0.55;70.28
36254;BME280;22291;52.250;21.228;2023-03-15T20:57:30;100275.93;;;-0.57;70.39
36254;BME280;22291;52.250;21.228;2023-03-15T20:59:57;100279.84;;;-0.60;70.70
36254;BME280;22291;52.250;21.228;2023-03-15T21:02:24;100270.75;;;-0.64;70.49
36254;BME280;22291;52.250;21.228;2023-03-15T21:04:51;100279.94;;;-0.69;70.56
36254;BME280;22291;52.250;21.228;2023-03-15T21:07:17;100283.82;;;-0.74;70.50
36254;BME280;22291;52.250;21.228;2023-03-15T21:09:44;100284.74;;;-0.80;70.58
36254;BME280;22291;52.250;21.228;2023-03-15T21:12:10;100286.27;;;-0.84;70.59
36254;BME280;22291;52.250;21.228;2023-03-15T21:14:36;100284.53;;;-0.90;70.69
